createdAt,value
2018-08-10T00:00:37.794Z,9.00
2018-08-10T00:03:06.100Z,8.13
2018-08-10T00:05:35.504Z,9.97
2018-08-10T00:08:04.797Z,8.60
2018-08-10T00:10:34.079Z,7.70
2018-08-10T00:13:02.348Z,6.73
2018-08-10T00:15:30.646Z,6.17
2018-08-10T00:17:58.944Z,5.90
2018-08-10T00:20:27.226Z,5.83
2018-08-10T00:22:55.492Z,6.67
2018-08-10T00:25:24.769Z,5.77
2018-08-10T00:27:53.087Z,5.37
2018-08-10T00:30:21.349Z,4.37
2018-08-10T00:32:50.535Z,5.37
2018-08-10T00:35:18.840Z,3.73
2018-08-10T00:37:48.089Z,4.17
2018-08-10T00:40:19.849Z,4.17
2018-08-10T00:42:48.150Z,3.53
2018-08-10T00:45:17.164Z,3.13
2018-08-10T00:47:45.934Z,3.97
2018-08-10T00:50:15.229Z,3.13
2018-08-10T00:52:44.529Z,3.53
2018-08-10T00:55:14.163Z,3.70
2018-08-10T00:57:42.846Z,4.03
2018-08-10T01:00:12.844Z,3.70
2018-08-10T01:02:41.446Z,4.03
2018-08-10T01:05:10.521Z,4.00
2018-08-10T01:07:39.813Z,5.17
2018-08-10T01:10:11.480Z,4.33
2018-08-10T01:12:41.034Z,4.73
2018-08-10T01:15:11.497Z,4.93
2018-08-10T01:17:40.317Z,5.20
2018-08-10T01:20:24.042Z,4.70
2018-08-10T01:22:57.637Z,5.27
2018-08-10T01:25:27.561Z,5.70
2018-08-10T01:28:03.357Z,5.70
2018-08-10T01:30:32.724Z,5.77
2018-08-10T01:33:01.209Z,4.80
2018-08-10T01:35:30.069Z,4.47
2018-08-10T01:38:00.525Z,4.40
2018-08-10T01:40:28.889Z,4.03
2018-08-10T01:42:57.184Z,2.90
2018-08-10T01:45:25.480Z,3.17
2018-08-10T01:47:53.904Z,3.77
2018-08-10T01:50:22.197Z,2.63
2018-08-10T01:52:50.485Z,2.27
2018-08-10T01:55:19.841Z,1.70
2018-08-10T01:57:48.137Z,1.60
2018-08-10T02:00:16.401Z,1.00
2018-08-10T02:02:44.656Z,1.00
2018-08-10T02:05:14.013Z,1.30
2018-08-10T02:07:43.884Z,1.43
2018-08-10T02:10:14.153Z,1.27
2018-08-10T02:12:44.256Z,0.80
2018-08-10T02:15:15.723Z,0.80
2018-08-10T02:17:44.003Z,0.87
2018-08-10T02:20:13.820Z,0.50
2018-08-10T02:22:43.294Z,0.80
2018-08-10T02:25:14.153Z,0.90
2018-08-10T02:27:43.425Z,0.90
2018-08-10T02:30:13.260Z,0.80
2018-08-10T02:32:42.539Z,1.23
2018-08-10T02:35:10.948Z,0.57
2018-08-10T02:37:39.809Z,0.70
2018-08-10T02:40:15.400Z,0.70
2018-08-10T02:42:44.766Z,0.80
2018-08-10T02:45:13.321Z,1.10
2018-08-10T02:47:41.620Z,0.70
2018-08-10T02:50:09.938Z,0.70
2018-08-10T02:52:38.217Z,0.70
2018-08-10T02:55:07.705Z,0.50
2018-08-10T02:57:36.073Z,0.70
2018-08-10T03:00:05.501Z,0.80
2018-08-10T03:02:33.781Z,0.90
2018-08-10T03:05:03.117Z,1.00
2018-08-10T03:07:31.481Z,0.70
2018-08-10T03:10:00.793Z,0.90
2018-08-10T03:12:31.092Z,1.10
2018-08-10T03:15:00.397Z,1.20
2018-08-10T03:17:28.690Z,0.77
2018-08-10T03:19:56.963Z,0.50
2018-08-10T03:22:25.271Z,0.83
2018-08-10T03:24:53.557Z,0.77
2018-08-10T03:27:21.859Z,0.90
2018-08-10T03:29:50.146Z,1.03
2018-08-10T03:32:18.463Z,1.17
2018-08-10T03:34:46.725Z,1.20
2018-08-10T03:37:16.076Z,0.97
2018-08-10T03:39:44.350Z,0.80
2018-08-10T03:42:12.646Z,0.93
2018-08-10T03:44:40.934Z,0.90
2018-08-10T03:47:09.225Z,1.07
2018-08-10T03:49:37.490Z,1.40
2018-08-10T03:52:05.931Z,1.33
2018-08-10T03:54:34.365Z,0.90
2018-08-10T03:57:02.708Z,1.20
2018-08-10T03:59:30.965Z,2.40
2018-08-10T04:01:59.305Z,1.10
2018-08-10T04:04:27.896Z,1.20
2018-08-10T04:06:56.152Z,1.70
2018-08-10T04:09:25.521Z,1.80
2018-08-10T04:11:53.790Z,1.20
2018-08-10T04:14:22.085Z,1.30
2018-08-10T04:16:50.376Z,1.43
2018-08-10T04:19:18.714Z,1.37
2018-08-10T04:21:47.005Z,1.43
2018-08-10T04:24:15.300Z,1.30
2018-08-10T04:26:43.565Z,1.27
2018-08-10T04:29:11.869Z,1.30
2018-08-10T04:31:40.153Z,1.57
2018-08-10T04:34:08.481Z,1.40
2018-08-10T04:36:36.791Z,1.67
2018-08-10T04:39:09.230Z,1.77
2018-08-10T04:41:37.513Z,2.00
2018-08-10T04:44:05.816Z,1.33
2018-08-10T04:46:34.074Z,2.20
2018-08-10T04:49:02.437Z,2.03
2018-08-10T04:51:30.718Z,1.90
2018-08-10T04:53:58.993Z,2.20
2018-08-10T04:56:28.357Z,1.67
2018-08-10T04:58:56.633Z,1.53
2018-08-10T05:01:24.989Z,2.17
2018-08-10T05:03:53.285Z,1.83
2018-08-10T05:06:21.628Z,1.93
2018-08-10T05:08:51.024Z,2.33
2018-08-10T05:11:19.310Z,2.50
2018-08-10T05:13:47.569Z,1.83
2018-08-10T05:16:15.897Z,2.40
2018-08-10T05:18:44.180Z,2.83
2018-08-10T05:21:12.481Z,2.00
2018-08-10T05:23:40.772Z,2.67
2018-08-10T05:26:09.090Z,2.03
2018-08-10T05:28:37.381Z,3.03
2018-08-10T05:31:05.737Z,1.80
2018-08-10T05:33:33.995Z,2.60
2018-08-10T05:36:02.324Z,2.53
2018-08-10T05:38:30.676Z,3.47
2018-08-10T05:40:58.966Z,3.60
2018-08-10T05:43:27.245Z,3.07
2018-08-10T05:45:55.524Z,2.73
2018-08-10T05:48:23.832Z,2.50
2018-08-10T05:50:52.136Z,2.23
2018-08-10T05:53:20.393Z,2.10
2018-08-10T05:55:48.680Z,3.27
2018-08-10T05:58:17.040Z,2.93
2018-08-10T06:00:45.407Z,3.00
2018-08-10T06:03:13.635Z,2.90
2018-08-10T06:05:41.887Z,2.93
2018-08-10T06:08:10.225Z,2.90
2018-08-10T06:10:38.557Z,3.37
2018-08-10T06:13:07.935Z,2.63
2018-08-10T06:15:36.184Z,1.80
2018-08-10T06:18:06.897Z,2.37
2018-08-10T06:20:36.153Z,3.27
2018-08-10T06:23:04.549Z,2.70
2018-08-10T06:25:33.849Z,2.30
2018-08-10T06:28:02.189Z,2.80
2018-08-10T06:30:30.465Z,2.23
2018-08-10T06:32:59.833Z,3.00
2018-08-10T06:35:28.145Z,3.37
2018-08-10T06:37:56.464Z,2.00
2018-08-10T06:40:24.765Z,2.43
2018-08-10T06:42:53.037Z,2.20
2018-08-10T06:45:21.424Z,2.63
2018-08-10T06:47:49.600Z,2.10
2018-08-10T06:50:17.964Z,2.43
2018-08-10T06:52:46.180Z,3.20
2018-08-10T06:55:14.493Z,2.13
2018-08-10T06:57:42.773Z,2.30
2018-08-10T07:00:11.065Z,2.47
2018-08-10T07:02:39.336Z,2.80
2018-08-10T07:05:08.173Z,2.13
2018-08-10T07:07:36.623Z,2.80
2018-08-10T07:10:06.225Z,2.40
2018-08-10T07:12:34.490Z,2.67
2018-08-10T07:15:02.916Z,2.40
2018-08-10T07:17:31.178Z,2.53
2018-08-10T07:19:59.475Z,4.20
2018-08-10T07:22:27.743Z,2.00
2018-08-10T07:24:56.042Z,2.20
2018-08-10T07:27:24.309Z,2.00
2018-08-10T07:29:52.605Z,1.90
2018-08-10T07:32:20.892Z,2.00
2018-08-10T07:34:49.289Z,1.80
2018-08-10T07:37:17.570Z,1.80
2018-08-10T07:39:45.826Z,2.10
2018-08-10T07:42:14.133Z,2.40
2018-08-10T07:44:42.385Z,3.00
2018-08-10T07:47:11.701Z,2.27
2018-08-10T07:49:40.071Z,2.30
2018-08-10T07:52:08.387Z,2.20
2018-08-10T07:54:36.619Z,1.70
2018-08-10T07:57:05.998Z,1.43
2018-08-10T07:59:35.317Z,1.20
2018-08-10T08:02:03.669Z,1.90
2018-08-10T08:04:31.973Z,2.13
2018-08-10T08:07:00.360Z,1.47
2018-08-10T08:09:28.633Z,1.30
2018-08-10T08:11:56.928Z,1.57
2018-08-10T08:14:25.213Z,1.30
2018-08-10T08:16:53.570Z,1.50
2018-08-10T08:19:21.916Z,1.77
2018-08-10T08:22:08.164Z,1.07
2018-08-10T08:24:38.213Z,1.53
2018-08-10T08:27:06.990Z,1.57
2018-08-10T08:29:35.845Z,1.27
2018-08-10T08:32:04.533Z,0.97
2018-08-10T08:34:32.909Z,2.13
2018-08-10T08:37:01.898Z,1.40
2018-08-10T08:40:45.681Z,1.60
2018-08-10T08:43:14.249Z,1.10
2018-08-10T08:45:48.730Z,1.10
2018-08-10T08:48:17.090Z,1.20
2018-08-10T08:50:46.822Z,1.47
2018-08-10T08:53:15.149Z,1.07
2018-08-10T08:55:45.794Z,1.10
2018-08-10T08:58:14.162Z,1.27
2018-08-10T09:00:42.541Z,1.33
2018-08-10T09:03:22.076Z,1.13
2018-08-10T09:05:50.537Z,1.17
2018-08-10T09:08:18.825Z,1.00
2018-08-10T09:10:47.145Z,1.87
2018-08-10T09:13:16.513Z,0.70
2018-08-10T09:15:44.837Z,1.00
2018-08-10T09:18:13.175Z,0.70
2018-08-10T09:20:43.737Z,1.03
2018-08-10T09:23:12.116Z,0.70
2018-08-10T09:25:41.504Z,1.37
2018-08-10T09:28:09.878Z,1.43
2018-08-10T09:30:38.161Z,1.20
2018-08-10T09:33:06.990Z,1.00
2018-08-10T09:35:35.285Z,1.17
2018-08-10T09:38:03.584Z,0.87
2018-08-10T09:40:31.885Z,1.00
2018-08-10T09:43:00.177Z,1.10
2018-08-10T09:45:29.626Z,1.47
2018-08-10T09:47:57.873Z,0.63
2018-08-10T09:50:26.142Z,1.20
2018-08-10T09:53:04.273Z,1.00
2018-08-10T09:55:38.708Z,0.97
2018-08-10T09:58:14.534Z,1.13
2018-08-10T10:00:48.133Z,0.90
2018-08-10T10:03:20.525Z,1.10
2018-08-10T10:05:51.020Z,1.07
2018-08-10T10:08:19.877Z,1.30
2018-08-10T10:10:48.133Z,0.90
2018-08-10T10:13:16.428Z,1.70
2018-08-10T10:15:44.803Z,1.10
2018-08-10T10:18:14.373Z,1.63
2018-08-10T10:20:43.129Z,1.30
2018-08-10T10:23:11.496Z,1.60
2018-08-10T10:25:39.785Z,2.53
2018-08-10T10:28:13.079Z,1.47
2018-08-10T10:30:41.393Z,2.10
2018-08-10T10:33:09.749Z,1.50
2018-08-10T10:35:38.024Z,0.90
2018-08-10T10:38:06.326Z,1.47
2018-08-10T10:40:35.693Z,1.67
2018-08-10T10:43:04.045Z,1.87
2018-08-10T10:45:32.345Z,2.83
2018-08-10T10:48:00.625Z,1.37
2018-08-10T10:50:28.920Z,1.40
2018-08-10T10:52:57.183Z,1.83
2018-08-10T10:55:25.523Z,1.80
2018-08-10T10:57:54.770Z,2.70
2018-08-10T11:00:24.068Z,1.50
2018-08-10T11:02:52.377Z,3.47
2018-08-10T11:05:20.673Z,1.70
2018-08-10T11:07:48.959Z,1.53
2018-08-10T11:10:18.442Z,1.30
2018-08-10T11:12:46.703Z,2.20
2018-08-10T11:15:15.161Z,1.83
2018-08-10T11:17:43.446Z,1.93
2018-08-10T11:20:12.430Z,1.60
2018-08-10T11:22:41.501Z,1.33
2018-08-10T11:25:11.636Z,1.60
2018-08-10T11:27:40.202Z,1.50
2018-08-10T11:30:09.112Z,3.20
2018-08-10T11:32:37.520Z,2.27
2018-08-10T11:35:05.989Z,2.27
2018-08-10T11:37:34.365Z,2.20
2018-08-10T11:40:10.079Z,3.07
2018-08-10T11:42:38.596Z,2.17
2018-08-10T11:45:09.135Z,1.33
2018-08-10T11:48:13.134Z,1.70
2018-08-10T11:50:41.406Z,3.00
2018-08-10T11:53:09.683Z,3.73
2018-08-10T11:55:37.937Z,6.87
2018-08-10T11:58:06.597Z,6.40
2018-08-10T12:00:34.872Z,1.97
2018-08-10T12:03:04.221Z,2.07
2018-08-10T12:05:33.643Z,1.70
2018-08-10T12:08:01.940Z,2.03
2018-08-10T12:10:31.257Z,1.90
2018-08-10T12:12:59.671Z,1.23
2018-08-10T12:15:27.858Z,1.40
2018-08-10T12:17:56.517Z,1.33
2018-08-10T12:20:24.793Z,1.20
2018-08-10T12:22:53.062Z,1.20
2018-08-10T12:25:21.361Z,1.00
2018-08-10T12:27:51.693Z,1.23
2018-08-10T12:30:20.035Z,1.70
2018-08-10T12:32:48.219Z,1.20
2018-08-10T12:35:16.465Z,1.27
2018-08-10T12:37:46.076Z,2.00
2018-08-10T12:40:30.268Z,1.50
2018-08-10T12:42:58.537Z,1.20
2018-08-10T12:45:28.154Z,1.20
2018-08-10T12:47:56.457Z,1.40
2018-08-10T12:50:24.885Z,1.50
2018-08-10T12:52:53.009Z,1.20
2018-08-10T12:55:21.302Z,1.30
2018-08-10T12:57:50.592Z,1.90
2018-08-10T13:00:18.885Z,1.30
2018-08-10T13:02:48.281Z,1.10
2018-08-10T13:05:16.565Z,1.27
2018-08-10T13:07:44.853Z,2.10
2018-08-10T13:10:14.694Z,1.20
2018-08-10T13:12:42.959Z,1.10
2018-08-10T13:15:12.489Z,1.27
2018-08-10T13:17:40.794Z,1.20
2018-08-10T13:20:11.710Z,1.33
2018-08-10T13:22:40.052Z,1.17
2018-08-10T13:25:10.006Z,1.30
2018-08-10T13:27:38.279Z,1.70
2018-08-10T13:30:08.102Z,1.33
2018-08-10T13:32:36.473Z,1.37
2018-08-10T13:35:05.988Z,1.70
2018-08-10T13:37:35.332Z,1.60
2018-08-10T13:40:04.447Z,1.80
2018-08-10T13:42:33.769Z,1.70
2018-08-10T13:45:02.060Z,1.77
2018-08-10T13:47:34.040Z,1.80
2018-08-10T13:50:02.305Z,3.33
2018-08-10T13:52:30.580Z,2.23
2018-08-10T13:54:58.841Z,1.97
2018-08-10T13:57:27.229Z,1.40
2018-08-10T13:59:55.516Z,2.03
2018-08-10T14:02:23.798Z,2.73
2018-08-10T14:04:52.039Z,1.97
2018-08-10T14:07:21.546Z,1.77
2018-08-10T14:09:49.815Z,3.20
2018-08-10T14:12:19.208Z,2.17
2018-08-10T14:14:47.650Z,2.00
2018-08-10T14:17:15.916Z,2.17
2018-08-10T14:19:44.220Z,2.47
2018-08-10T14:22:12.472Z,2.10
2018-08-10T14:24:40.773Z,2.23
2018-08-10T14:27:09.181Z,2.17
2018-08-10T14:29:37.436Z,2.50
2018-08-10T14:32:05.693Z,3.13
2018-08-10T14:34:34.017Z,2.97
2018-08-10T14:37:02.280Z,2.30
2018-08-10T14:39:30.554Z,2.77
2018-08-10T14:41:58.857Z,1.87
2018-08-10T14:44:28.277Z,1.40
2018-08-10T14:46:57.611Z,1.87
2018-08-10T14:49:25.939Z,1.30
2018-08-10T14:51:54.221Z,1.20
2018-08-10T14:54:22.648Z,2.10
2018-08-10T14:56:50.929Z,2.43
2018-08-10T14:59:19.249Z,2.40
2018-08-10T15:01:50.937Z,2.27
2018-08-10T15:04:19.305Z,4.03
2018-08-10T15:06:47.640Z,2.73
2018-08-10T15:09:15.940Z,2.50
2018-08-10T15:11:45.293Z,2.20
2018-08-10T15:14:13.553Z,3.10
2018-08-10T15:16:42.833Z,2.67
2018-08-10T15:19:11.133Z,2.60
2018-08-10T15:21:40.392Z,3.50
2018-08-10T15:24:08.648Z,2.83
2018-08-10T15:26:37.234Z,3.40
2018-08-10T15:29:05.842Z,2.33
2018-08-10T15:31:34.133Z,3.10
2018-08-10T15:34:02.452Z,2.20
2018-08-10T15:36:30.920Z,2.85
2018-08-10T15:38:59.184Z,2.93
2018-08-10T15:41:27.454Z,2.37
2018-08-10T15:43:55.717Z,2.60
2018-08-10T15:46:23.969Z,3.83
2018-08-10T15:48:52.413Z,2.60
2018-08-10T15:51:21.378Z,3.37
2018-08-10T15:53:49.629Z,3.03
2018-08-10T15:56:18.009Z,3.03
2018-08-10T15:58:46.160Z,3.30
2018-08-10T16:01:14.501Z,3.30
2018-08-10T16:03:42.769Z,3.30
2018-08-10T16:06:11.393Z,3.30
2018-08-10T16:08:39.752Z,4.27
2018-08-10T16:11:07.967Z,3.83
2018-08-10T16:13:36.233Z,3.60
2018-08-10T16:16:04.598Z,3.10
2018-08-10T16:18:32.853Z,3.90
2018-08-10T16:21:01.192Z,3.60
2018-08-10T16:23:29.452Z,3.47
2018-08-10T16:25:57.724Z,4.00
2018-08-10T16:28:26.041Z,4.97
2018-08-10T16:30:54.518Z,4.37
2018-08-10T16:33:22.873Z,3.53
2018-08-10T16:35:51.138Z,5.37
2018-08-10T16:38:19.461Z,3.37
2018-08-10T16:40:48.742Z,3.40
2018-08-10T16:43:17.029Z,4.60
2018-08-10T16:45:45.291Z,2.97
2018-08-10T16:48:13.592Z,3.47
2018-08-10T16:50:44.031Z,2.90
2018-08-10T16:53:12.170Z,3.00
2018-08-10T16:55:40.430Z,2.73
2018-08-10T16:58:08.734Z,3.50
2018-08-10T17:00:37.094Z,3.30
2018-08-10T17:03:05.444Z,3.30
2018-08-10T17:05:33.705Z,2.00
2018-08-10T17:08:02.122Z,2.50
2018-08-10T17:10:30.405Z,2.00
2018-08-10T17:12:58.704Z,2.27
2018-08-10T17:15:26.985Z,2.10
2018-08-10T17:17:55.356Z,2.07
2018-08-10T17:20:23.700Z,2.40
2018-08-10T17:22:53.017Z,1.93
2018-08-10T17:25:21.440Z,2.60
2018-08-10T17:27:50.778Z,2.00
2018-08-10T17:30:21.097Z,1.90
2018-08-10T17:32:49.401Z,1.97
2018-08-10T17:35:18.114Z,1.87
2018-08-10T17:37:47.033Z,2.00
2018-08-10T17:40:16.398Z,1.57
2018-08-10T17:42:46.702Z,1.87
2018-08-10T17:45:16.341Z,1.93
2018-08-10T17:47:44.637Z,2.03
2018-08-10T17:50:14.884Z,1.53
2018-08-10T17:52:45.250Z,1.90
2018-08-10T17:55:14.884Z,1.67
2018-08-10T17:57:43.703Z,1.70
2018-08-10T18:00:15.006Z,1.83
2018-08-10T18:02:43.345Z,1.87
2018-08-10T18:05:13.396Z,2.00
2018-08-10T18:07:41.729Z,1.90
2018-08-10T18:10:12.682Z,1.90
2018-08-10T18:12:41.753Z,1.87
2018-08-10T18:15:12.045Z,1.67
2018-08-10T18:17:41.037Z,1.33
2018-08-10T18:20:13.720Z,1.77
2018-08-10T18:22:44.065Z,2.03
2018-08-10T18:25:13.506Z,2.00
2018-08-10T18:27:42.503Z,2.80
2018-08-10T18:30:12.983Z,3.50
2018-08-10T18:32:41.329Z,2.17
2018-08-10T18:35:10.248Z,1.63
2018-08-10T18:37:39.968Z,1.93
2018-08-10T18:41:32.909Z,2.00
2018-08-10T18:44:01.196Z,1.80
2018-08-10T18:46:29.462Z,1.90
2018-08-10T18:48:57.788Z,1.70
2018-08-10T18:51:26.121Z,1.20
2018-08-10T18:53:54.392Z,1.50
2018-08-10T18:56:22.702Z,1.53
2018-08-10T18:58:50.991Z,1.57
2018-08-10T19:01:20.308Z,1.67
2018-08-10T19:03:49.653Z,1.93
2018-08-10T19:06:17.977Z,1.60
2018-08-10T19:08:46.284Z,1.60
2018-08-10T19:11:14.541Z,2.03
2018-08-10T19:13:42.887Z,2.90
2018-08-10T19:16:11.193Z,2.77
2018-08-10T19:18:39.478Z,2.33
2018-08-10T19:21:07.762Z,4.63
2018-08-10T19:23:36.069Z,3.23
2018-08-10T19:26:04.354Z,4.50
2018-08-10T19:28:32.812Z,3.90
2018-08-10T19:31:01.068Z,3.30
2018-08-10T19:33:29.366Z,3.60
2018-08-10T19:35:57.633Z,2.67
2018-08-10T19:38:25.898Z,3.23
2018-08-10T19:40:54.200Z,2.80
2018-08-10T19:43:22.469Z,2.27
2018-08-10T19:45:50.761Z,2.20
2018-08-10T19:48:19.084Z,2.80
2018-08-10T19:50:47.346Z,2.37
2018-08-10T19:53:15.621Z,2.80
2018-08-10T19:55:43.921Z,3.33
2018-08-10T19:58:12.213Z,2.60
2018-08-10T20:00:40.592Z,2.07
2018-08-10T20:03:09.275Z,2.10
2018-08-10T20:05:37.589Z,2.40
2018-08-10T20:08:05.853Z,2.13
2018-08-10T20:10:34.262Z,2.40
2018-08-10T20:13:02.548Z,2.20
2018-08-10T20:15:31.182Z,2.57
2018-08-10T20:17:59.361Z,3.00
2018-08-10T20:20:27.605Z,3.03
2018-08-10T20:22:56.057Z,3.30
2018-08-10T20:25:24.313Z,3.43
2018-08-10T20:27:52.629Z,3.53
2018-08-10T20:30:21.940Z,3.73
2018-08-10T20:32:51.385Z,4.43
2018-08-10T20:35:20.378Z,3.90
2018-08-10T20:37:48.908Z,3.73
2018-08-10T20:40:18.443Z,4.13
2018-08-10T20:42:47.476Z,4.13
2018-08-10T20:45:16.766Z,4.90
2018-08-10T20:47:45.058Z,3.77
2018-08-10T20:50:16.512Z,4.23
2018-08-10T20:52:45.405Z,4.30
2018-08-10T20:55:13.673Z,4.40
2018-08-10T20:57:42.521Z,4.60
2018-08-10T21:00:11.333Z,3.83
2018-08-10T21:02:40.264Z,3.10
2018-08-10T21:05:08.615Z,4.53
2018-08-10T21:07:37.904Z,3.90
2018-08-10T21:10:08.736Z,4.53
2018-08-10T21:12:37.349Z,4.90
2018-08-10T21:15:06.605Z,4.37
2018-08-10T21:17:34.876Z,3.63
2018-08-10T21:20:03.201Z,4.00
2018-08-10T21:22:31.449Z,3.80
2018-08-10T21:24:59.718Z,4.37
2018-08-10T21:27:28.015Z,5.13
2018-08-10T21:29:56.253Z,4.27
2018-08-10T21:32:24.513Z,4.43
2018-08-10T21:34:53.061Z,4.13
2018-08-10T21:37:21.356Z,4.50
2018-08-10T21:39:49.676Z,3.43
2018-08-10T21:42:18.061Z,3.87
2018-08-10T21:44:46.345Z,3.20
2018-08-10T21:47:14.617Z,4.07
2018-08-10T21:49:42.926Z,3.50
2018-08-10T21:52:11.233Z,4.00
2018-08-10T21:54:39.519Z,3.80
2018-08-10T21:57:07.449Z,3.17
2018-08-10T21:59:35.748Z,3.23
2018-08-10T22:02:04.077Z,3.60
2018-08-10T22:04:32.366Z,3.80
2018-08-10T22:07:00.656Z,3.40
2018-08-10T22:09:28.917Z,3.53
2018-08-10T22:11:57.193Z,3.10
2018-08-10T22:14:30.662Z,2.83
2018-08-10T22:17:04.233Z,2.60
2018-08-10T22:19:32.518Z,2.87
2018-08-10T22:22:00.803Z,3.40
2018-08-10T22:24:29.090Z,3.40
2018-08-10T22:26:57.365Z,3.20
2018-08-10T22:29:25.672Z,2.77
2018-08-10T22:31:53.889Z,2.87
2018-08-10T22:41:22.466Z,3.73
2018-08-10T22:43:50.757Z,3.00
2018-08-10T22:46:19.025Z,3.00
2018-08-10T22:48:47.277Z,3.57
2018-08-10T22:51:15.766Z,3.10
2018-08-10T22:53:45.046Z,3.90
2018-08-10T22:56:13.317Z,2.90
2018-08-10T22:58:41.621Z,2.50
2018-08-10T23:01:09.921Z,2.20
2018-08-10T23:03:38.264Z,3.10
2018-08-10T23:06:06.634Z,2.80
2018-08-10T23:08:35.003Z,2.07
2018-08-10T23:11:03.185Z,2.93
2018-08-10T23:13:31.508Z,3.40
2018-08-10T23:16:00.082Z,2.70
2018-08-10T23:18:28.360Z,3.10
2018-08-10T23:20:56.613Z,2.83
2018-08-10T23:23:24.927Z,3.30
2018-08-10T23:25:53.448Z,3.60
2018-08-10T23:28:21.748Z,3.40
2018-08-10T23:30:50.018Z,3.30
2018-08-10T23:33:18.600Z,2.90
2018-08-10T23:35:47.821Z,3.50
2018-08-10T23:38:16.117Z,3.10
2018-08-10T23:40:44.534Z,3.83
2018-08-10T23:43:12.817Z,4.77
2018-08-10T23:45:41.881Z,3.80
2018-08-10T23:48:10.167Z,3.53
2018-08-10T23:50:38.420Z,4.87
2018-08-10T23:53:07.105Z,3.90
2018-08-10T23:55:35.390Z,4.07
2018-08-10T23:58:03.781Z,4.57
